createdAt,value
2017-01-28T00:00:39.062Z,-0.3
2017-01-28T00:01:45.083Z,-0.3
2017-01-28T00:02:51.100Z,-0.3
2017-01-28T00:03:55.362Z,-0.3
2017-01-28T00:05:01.391Z,-0.2
2017-01-28T00:06:06.746Z,-0.3
2017-01-28T00:07:12.759Z,-0.3
2017-01-28T00:08:18.788Z,-0.2
2017-01-28T00:09:24.812Z,-0.3
2017-01-28T00:10:30.839Z,-0.2
2017-01-28T00:11:36.868Z,-0.3
2017-01-28T00:12:42.915Z,-0.3
2017-01-28T00:13:48.961Z,-0.4
2017-01-28T00:14:54.978Z,-0.3
2017-01-28T00:16:01.000Z,-0.3
2017-01-28T00:17:06.355Z,-0.3
2017-01-28T00:18:12.378Z,-0.3
2017-01-28T00:19:18.395Z,-0.3
2017-01-28T00:20:24.422Z,-0.3
2017-01-28T00:21:30.472Z,-0.3
2017-01-28T00:22:36.465Z,-0.4
2017-01-28T00:23:42.481Z,-0.4
2017-01-28T00:24:48.508Z,-0.3
2017-01-28T00:25:54.532Z,-0.3
2017-01-28T00:27:00.550Z,-0.3
2017-01-28T00:28:06.580Z,-0.4
2017-01-28T00:29:12.598Z,-0.4
2017-01-28T00:30:18.624Z,-0.4
2017-01-28T00:31:24.644Z,-0.3
2017-01-28T00:32:30.092Z,-0.3
2017-01-28T00:33:36.119Z,-0.4
2017-01-28T00:34:41.052Z,-0.4
2017-01-28T00:35:47.057Z,-0.4
2017-01-28T00:36:52.416Z,-0.4
2017-01-28T00:37:58.439Z,-0.4
2017-01-28T00:39:04.463Z,-0.4
2017-01-28T00:40:09.835Z,-0.3
2017-01-28T00:41:15.984Z,-0.4
2017-01-28T00:42:22.001Z,-0.4
2017-01-28T00:43:27.375Z,-0.4
2017-01-28T00:44:32.299Z,-0.4
2017-01-28T00:45:38.319Z,-0.4
2017-01-28T00:46:43.246Z,-0.4
2017-01-28T00:47:49.268Z,-0.3
2017-01-28T00:48:55.284Z,-0.3
2017-01-28T00:50:01.314Z,-0.3
2017-01-28T00:51:07.440Z,-0.3
2017-01-28T00:52:13.464Z,-0.3
2017-01-28T00:53:19.476Z,-0.3
2017-01-28T00:54:24.401Z,-0.3
2017-01-28T00:55:30.426Z,-0.3
2017-01-28T00:56:34.679Z,-0.4
2017-01-28T00:57:40.697Z,-0.4
2017-01-28T00:58:46.720Z,-0.4
2017-01-28T00:59:52.737Z,-0.4
2017-01-28T01:00:58.765Z,-0.4
2017-01-28T01:02:04.789Z,-0.4
2017-01-28T01:03:10.811Z,-0.4
2017-01-28T01:04:16.834Z,-0.4
2017-01-28T01:05:21.761Z,-0.4
2017-01-28T01:06:27.778Z,-0.5
2017-01-28T01:07:33.800Z,-0.5
2017-01-28T01:08:38.722Z,-0.5
2017-01-28T01:09:44.729Z,-0.5
2017-01-28T01:10:50.754Z,-0.4
2017-01-28T01:11:56.781Z,-0.4
2017-01-28T01:13:02.143Z,-0.4
2017-01-28T01:14:08.169Z,-0.4
2017-01-28T01:15:14.188Z,-0.4
2017-01-28T01:16:20.213Z,-0.4
2017-01-28T01:17:26.233Z,-0.4
2017-01-28T01:18:32.256Z,-0.4
2017-01-28T01:19:38.276Z,-0.4
2017-01-28T01:20:44.294Z,-0.3
2017-01-28T01:21:50.311Z,-0.4
2017-01-28T01:22:55.673Z,-0.5
2017-01-28T01:24:01.698Z,-0.4
2017-01-28T01:25:07.717Z,-0.5
2017-01-28T01:26:13.741Z,-0.4
2017-01-28T01:27:19.755Z,-0.5
2017-01-28T01:28:25.789Z,-0.5
2017-01-28T01:29:31.139Z,-0.5
2017-01-28T01:30:36.577Z,-0.4
2017-01-28T01:31:41.936Z,-0.4
2017-01-28T01:32:47.962Z,-0.5
2017-01-28T01:33:53.982Z,-0.5
2017-01-28T01:34:59.338Z,-0.5
2017-01-28T01:36:05.368Z,-0.4
2017-01-28T01:37:11.391Z,-0.5
2017-01-28T01:38:17.412Z,-0.5
2017-01-28T01:39:23.431Z,-0.4
2017-01-28T01:40:29.464Z,-0.4
2017-01-28T01:41:34.820Z,-0.5
2017-01-28T01:42:40.846Z,-0.5
2017-01-28T01:43:46.199Z,-0.6
2017-01-28T01:44:52.230Z,-0.6
2017-01-28T01:45:58.251Z,-0.6
2017-01-28T01:47:03.611Z,-0.6
2017-01-28T01:48:09.637Z,-0.6
2017-01-28T01:49:15.668Z,-0.5
2017-01-28T01:50:21.687Z,-0.5
2017-01-28T01:51:27.711Z,-0.5
2017-01-28T01:52:33.732Z,-0.6
2017-01-28T01:53:39.754Z,-0.5
2017-01-28T01:54:45.768Z,-0.5
2017-01-28T01:55:51.787Z,-0.6
2017-01-28T01:56:57.814Z,-0.6
2017-01-28T01:58:03.839Z,-0.5
2017-01-28T01:59:09.857Z,-0.6
2017-01-28T02:00:15.890Z,-0.6
2017-01-28T02:01:21.916Z,-0.5
2017-01-28T02:02:27.942Z,-0.6
2017-01-28T02:03:33.957Z,-0.6
2017-01-28T02:04:39.985Z,-0.6
2017-01-28T02:05:44.910Z,-0.6
2017-01-28T02:06:50.938Z,-0.6
2017-01-28T02:07:56.946Z,-0.7
2017-01-28T02:09:02.974Z,-0.7
2017-01-28T02:10:09.001Z,-0.7
2017-01-28T02:11:15.026Z,-0.6
2017-01-28T02:12:21.044Z,-0.6
2017-01-28T02:13:27.065Z,-0.6
2017-01-28T02:14:33.119Z,-0.6
2017-01-28T02:15:39.110Z,-0.6
2017-01-28T02:16:45.132Z,-0.6
2017-01-28T02:17:50.500Z,-0.5
2017-01-28T02:18:56.525Z,-0.6
2017-01-28T02:20:02.546Z,-0.7
2017-01-28T02:21:08.570Z,-0.7
2017-01-28T02:22:14.596Z,-0.6
2017-01-28T02:23:20.618Z,-0.6
2017-01-28T02:24:26.639Z,-0.6
2017-01-28T02:25:32.659Z,-0.6
2017-01-28T02:26:38.686Z,-0.6
2017-01-28T02:27:44.700Z,-0.6
2017-01-28T02:28:50.723Z,-0.7
2017-01-28T02:29:56.748Z,-0.7
2017-01-28T02:31:02.777Z,-0.7
2017-01-28T02:32:07.694Z,-0.7
2017-01-28T02:33:13.051Z,-0.7
2017-01-28T02:34:19.072Z,-0.7
2017-01-28T02:35:25.100Z,-0.7
2017-01-28T02:36:31.111Z,-0.7
2017-01-28T02:37:37.131Z,-0.7
2017-01-28T02:38:43.155Z,-0.7
2017-01-28T02:39:49.177Z,-0.8
2017-01-28T02:40:55.192Z,-0.7
2017-01-28T02:42:00.115Z,-0.8
2017-01-28T02:43:06.141Z,-0.8
2017-01-28T02:44:12.159Z,-0.8
2017-01-28T02:45:18.176Z,-0.8
2017-01-28T02:46:24.198Z,-0.8
2017-01-28T02:47:30.216Z,-0.8
2017-01-28T02:48:35.576Z,-0.8
2017-01-28T02:49:41.603Z,-0.9
2017-01-28T02:50:47.632Z,-0.9
2017-01-28T02:51:52.998Z,-0.9
2017-01-28T02:52:59.017Z,-0.8
2017-01-28T02:54:05.039Z,-0.9
2017-01-28T02:55:11.059Z,-0.9
2017-01-28T02:56:16.418Z,-0.9
2017-01-28T02:57:22.444Z,-1
2017-01-28T02:58:28.462Z,-1
2017-01-28T02:59:34.483Z,-1
2017-01-28T03:00:40.507Z,-1
2017-01-28T03:01:46.532Z,-1
2017-01-28T03:02:52.551Z,-0.9
2017-01-28T03:03:58.578Z,-0.9
2017-01-28T03:05:04.596Z,-0.9
2017-01-28T03:06:10.609Z,-0.9
2017-01-28T03:07:16.629Z,-1
2017-01-28T03:08:22.659Z,-0.9
2017-01-28T03:09:28.677Z,-0.9
2017-01-28T03:10:34.698Z,-0.9
2017-01-28T03:11:40.720Z,-0.9
2017-01-28T03:12:46.740Z,-0.9
2017-01-28T03:13:52.780Z,-0.9
2017-01-28T03:14:58.780Z,-0.9
2017-01-28T03:16:04.799Z,-1
2017-01-28T03:17:10.814Z,-0.9
2017-01-28T03:18:16.866Z,-0.9
2017-01-28T03:19:22.896Z,-0.9
2017-01-28T03:20:28.884Z,-1
2017-01-28T03:21:34.912Z,-0.9
2017-01-28T03:22:40.924Z,-0.9
2017-01-28T03:23:46.946Z,-0.9
2017-01-28T03:24:52.966Z,-0.9
2017-01-28T03:25:58.987Z,-0.9
2017-01-28T03:27:05.003Z,-0.9
2017-01-28T03:28:11.040Z,-0.9
2017-01-28T03:29:17.060Z,-0.9
2017-01-28T03:30:23.081Z,-0.9
2017-01-28T03:31:29.099Z,-0.9
2017-01-28T03:32:35.123Z,-0.9
2017-01-28T03:33:41.144Z,-0.9
2017-01-28T03:34:46.512Z,-0.9
2017-01-28T03:35:52.526Z,-0.9
2017-01-28T03:36:58.555Z,-0.9
2017-01-28T03:38:04.580Z,-0.9
2017-01-28T03:39:10.606Z,-0.9
2017-01-28T03:40:16.623Z,-0.9
2017-01-28T03:41:21.541Z,-0.9
2017-01-28T03:42:27.564Z,-0.9
2017-01-28T03:43:33.583Z,-0.9
2017-01-28T03:44:39.602Z,-1
2017-01-28T03:45:45.629Z,-1
2017-01-28T03:46:51.656Z,-1
2017-01-28T03:47:57.017Z,-0.9
2017-01-28T03:49:01.939Z,-0.9
2017-01-28T03:50:07.958Z,-0.9
2017-01-28T03:51:13.980Z,-0.9
2017-01-28T03:52:20.004Z,-0.9
2017-01-28T03:53:26.023Z,-0.9
2017-01-28T03:54:32.046Z,-0.9
2017-01-28T03:55:38.068Z,-1
2017-01-28T03:56:42.987Z,-1
2017-01-28T03:57:49.010Z,-1
2017-01-28T03:58:55.032Z,-1
2017-01-28T04:00:01.082Z,-1
2017-01-28T04:01:07.077Z,-1
2017-01-28T04:02:13.101Z,-1
2017-01-28T04:03:19.129Z,-1.1
2017-01-28T04:04:25.155Z,-1.1
2017-01-28T04:05:30.515Z,-1
2017-01-28T04:06:36.536Z,-1
2017-01-28T04:07:41.897Z,-1
2017-01-28T04:08:47.918Z,-1
2017-01-28T04:09:53.939Z,-1
2017-01-28T04:10:59.972Z,-1
2017-01-28T04:12:05.989Z,-1
2017-01-28T04:13:12.008Z,-1
2017-01-28T04:14:18.032Z,-1
2017-01-28T04:15:22.959Z,-1
2017-01-28T04:16:28.977Z,-0.9
2017-01-28T04:17:34.997Z,-0.9
2017-01-28T04:18:41.020Z,-1
2017-01-28T04:19:47.044Z,-0.9
2017-01-28T04:20:53.070Z,-0.9
2017-01-28T04:21:59.090Z,-1
2017-01-28T04:23:04.452Z,-0.9
2017-01-28T04:24:10.477Z,-0.9
2017-01-28T04:25:16.497Z,-1
2017-01-28T04:26:22.523Z,-1
2017-01-28T04:27:28.552Z,-1
2017-01-28T04:28:34.575Z,-1
2017-01-28T04:29:40.597Z,-1
2017-01-28T04:30:46.616Z,-0.9
2017-01-28T04:31:51.986Z,-0.9
2017-01-28T04:32:58.004Z,-0.9
2017-01-28T04:34:04.024Z,-0.9
2017-01-28T04:35:10.039Z,-0.9
2017-01-28T04:36:16.073Z,-0.9
2017-01-28T04:37:22.094Z,-0.9
2017-01-28T04:38:28.112Z,-0.8
2017-01-28T04:39:33.470Z,-0.9
2017-01-28T04:40:38.834Z,-0.9
2017-01-28T04:41:44.852Z,-1
2017-01-28T04:42:50.873Z,-1
2017-01-28T04:43:56.903Z,-1
2017-01-28T04:45:02.918Z,-1
2017-01-28T04:46:08.938Z,-1
2017-01-28T04:47:14.958Z,-1
2017-01-28T04:48:19.888Z,-1
2017-01-28T04:49:25.897Z,-1
2017-01-28T04:50:31.922Z,-1
2017-01-28T04:51:37.947Z,-1
2017-01-28T04:52:43.978Z,-0.9
2017-01-28T04:53:50.003Z,-1
2017-01-28T04:54:56.015Z,-1
2017-01-28T04:56:02.043Z,-1
2017-01-28T04:57:06.974Z,-1
2017-01-28T04:58:12.989Z,-1
2017-01-28T04:59:19.008Z,-0.9
2017-01-28T05:00:25.037Z,-1
2017-01-28T05:01:31.060Z,-1
2017-01-28T05:02:37.079Z,-1
2017-01-28T05:03:43.100Z,-1
2017-01-28T05:04:49.138Z,-1.1
2017-01-28T05:05:53.389Z,-1.1
2017-01-28T05:06:59.410Z,-1.1
2017-01-28T05:08:05.423Z,-1.1
2017-01-28T05:09:11.441Z,-1.1
2017-01-28T05:10:17.462Z,-1.2
2017-01-28T05:11:23.488Z,-1.1
2017-01-28T05:12:29.512Z,-1.2
2017-01-28T05:13:35.529Z,-1.2
2017-01-28T05:14:41.552Z,-1.2
2017-01-28T05:15:46.473Z,-1.2
2017-01-28T05:16:52.498Z,-1.1
2017-01-28T05:17:58.523Z,-1.1
2017-01-28T05:19:04.541Z,-1.2
2017-01-28T05:20:10.558Z,-1.2
2017-01-28T05:21:16.576Z,-1.3
2017-01-28T05:22:22.600Z,-1.2
2017-01-28T05:23:28.622Z,-1.3
2017-01-28T05:24:34.643Z,-1.3
2017-01-28T05:25:40.662Z,-1.3
2017-01-28T05:26:46.692Z,-1.3
2017-01-28T05:27:52.717Z,-1.3
2017-01-28T05:28:58.730Z,-1.3
2017-01-28T05:30:04.756Z,-1.3
2017-01-28T05:31:10.807Z,-1.3
2017-01-28T05:32:16.808Z,-1.3
2017-01-28T05:33:22.832Z,-1.3
2017-01-28T05:34:28.199Z,-1.3
2017-01-28T05:35:33.559Z,-1.3
2017-01-28T05:36:39.582Z,-1.3
2017-01-28T05:37:45.606Z,-1.3
2017-01-28T05:38:51.634Z,-1.4
2017-01-28T05:39:57.662Z,-1.3
2017-01-28T05:41:02.589Z,-1.3
2017-01-28T05:42:08.601Z,-1.3
2017-01-28T05:43:14.629Z,-1.3
2017-01-28T05:44:20.649Z,-1.3
2017-01-28T05:45:26.680Z,-1.4
2017-01-28T05:46:32.704Z,-1.4
2017-01-28T05:47:38.728Z,-1.4
2017-01-28T05:48:44.753Z,-1.4
2017-01-28T05:49:50.774Z,-1.4
2017-01-28T05:50:56.787Z,-1.4
2017-01-28T05:52:02.809Z,-1.4
2017-01-28T05:53:08.835Z,-1.5
2017-01-28T05:54:14.846Z,-1.5
2017-01-28T05:55:19.780Z,-1.5
2017-01-28T05:56:25.802Z,-1.4
2017-01-28T05:57:31.160Z,-1.5
2017-01-28T05:58:37.178Z,-1.4
2017-01-28T05:59:42.545Z,-1.4
2017-01-28T06:00:48.568Z,-1.5
2017-01-28T06:01:54.590Z,-1.5
2017-01-28T06:03:00.605Z,-1.5
2017-01-28T06:04:06.634Z,-1.5
2017-01-28T06:05:12.659Z,-1.5
2017-01-28T06:06:18.017Z,-1.5
2017-01-28T06:07:24.044Z,-1.5
2017-01-28T06:08:30.073Z,-1.5
2017-01-28T06:09:36.095Z,-1.5
2017-01-28T06:10:42.116Z,-1.5
2017-01-28T06:11:48.141Z,-1.4
2017-01-28T06:12:53.495Z,-1.4
2017-01-28T06:13:59.526Z,-1.4
2017-01-28T06:15:05.541Z,-1.4
2017-01-28T06:16:11.571Z,-1.4
2017-01-28T06:17:17.596Z,-1.4
2017-01-28T06:18:23.617Z,-1.4
2017-01-28T06:19:29.634Z,-1.4
2017-01-28T06:20:34.554Z,-1.5
2017-01-28T06:21:40.579Z,-1.5
2017-01-28T06:22:46.601Z,-1.5
2017-01-28T06:23:52.622Z,-1.5
2017-01-28T06:24:57.555Z,-1.5
2017-01-28T06:26:03.579Z,-1.4
2017-01-28T06:27:09.597Z,-1.5
2017-01-28T06:28:15.615Z,-1.5
2017-01-28T06:29:21.630Z,-1.5
2017-01-28T06:30:27.653Z,-1.5
2017-01-28T06:31:33.668Z,-1.6
2017-01-28T06:32:39.699Z,-1.6
2017-01-28T06:33:45.715Z,-1.6
2017-01-28T06:34:51.745Z,-1.6
2017-01-28T06:35:57.759Z,-1.5
2017-01-28T06:37:03.774Z,-1.5
2017-01-28T06:38:09.798Z,-1.5
2017-01-28T06:39:15.159Z,-1.4
2017-01-28T06:40:21.183Z,-1.6
2017-01-28T06:41:27.204Z,-1.6
2017-01-28T06:42:32.127Z,-1.5
2017-01-28T06:43:38.150Z,-1.5
2017-01-28T06:44:44.169Z,-1.4
2017-01-28T06:45:49.529Z,-1.4
2017-01-28T06:46:55.546Z,-1.4
2017-01-28T06:48:01.570Z,-1.5
2017-01-28T06:49:06.923Z,-1.5
2017-01-28T06:50:12.955Z,-1.6
2017-01-28T06:51:18.981Z,-1.5
2017-01-28T06:52:24.339Z,-1.6
2017-01-28T06:53:29.033Z,-1.7
2017-01-28T06:54:35.055Z,-1.6
2017-01-28T06:55:41.073Z,-1.6
2017-01-28T06:56:47.098Z,-1.7
2017-01-28T06:57:53.120Z,-1.7
2017-01-28T06:58:59.147Z,-1.6
2017-01-28T07:00:04.508Z,-1.6
2017-01-28T07:01:09.869Z,-1.6
2017-01-28T07:02:15.887Z,-1.6
2017-01-28T07:03:21.919Z,-1.6
2017-01-28T07:04:27.935Z,-1.7
2017-01-28T07:05:33.956Z,-1.7
2017-01-28T07:06:38.210Z,-1.7
2017-01-28T07:07:44.237Z,-1.7
2017-01-28T07:08:50.261Z,-1.7
2017-01-28T07:09:56.280Z,-1.7
2017-01-28T07:11:02.310Z,-1.6
2017-01-28T07:12:07.235Z,-1.7
2017-01-28T07:13:13.252Z,-1.6
2017-01-28T07:14:18.169Z,-1.7
2017-01-28T07:15:24.194Z,-1.7
2017-01-28T07:16:30.217Z,-1.6
2017-01-28T07:17:36.235Z,-1.6
2017-01-28T07:18:42.248Z,-1.7
2017-01-28T07:19:48.273Z,-1.7
2017-01-28T07:20:54.299Z,-1.7
2017-01-28T07:21:59.663Z,-1.7
2017-01-28T07:23:05.029Z,-1.6
2017-01-28T07:24:11.046Z,-1.6
2017-01-28T07:25:17.074Z,-1.8
2017-01-28T07:26:23.093Z,-1.8
2017-01-28T07:27:28.019Z,-1.8
2017-01-28T07:28:34.040Z,-1.8
2017-01-28T07:29:40.059Z,-1.8
2017-01-28T07:30:46.074Z,-1.7
2017-01-28T07:31:52.101Z,-1.7
2017-01-28T07:32:58.118Z,-1.7
2017-01-28T07:34:03.479Z,-1.7
2017-01-28T07:35:09.501Z,-1.7
2017-01-28T07:36:15.534Z,-1.7
2017-01-28T07:37:21.555Z,-1.7
2017-01-28T07:38:27.577Z,-1.7
2017-01-28T07:39:33.598Z,-1.7
2017-01-28T07:40:38.523Z,-1.6
2017-01-28T07:41:44.550Z,-1.6
2017-01-28T07:42:49.905Z,-1.7
2017-01-28T07:43:54.830Z,-1.7
2017-01-28T07:45:00.192Z,-1.7
2017-01-28T07:46:05.118Z,-1.7
2017-01-28T07:47:11.142Z,-1.7
2017-01-28T07:48:17.167Z,-1.6
2017-01-28T07:49:23.189Z,-1.6
2017-01-28T07:50:29.214Z,-1.6
2017-01-28T07:51:34.571Z,-1.6
2017-01-28T07:52:39.940Z,-1.5
2017-01-28T07:53:45.968Z,-1.5
2017-01-28T07:54:51.985Z,-1.5
2017-01-28T07:55:58.010Z,-1.5
2017-01-28T07:57:04.030Z,-1.5
2017-01-28T07:58:10.049Z,-1.5
2017-01-28T07:59:16.068Z,-1.5
2017-01-28T08:00:22.086Z,-1.4
2017-01-28T08:01:28.113Z,-1.4
2017-01-28T08:02:34.140Z,-1.4
2017-01-28T08:03:40.157Z,-1.3
2017-01-28T08:04:46.175Z,-1.3
2017-01-28T08:05:52.205Z,-1.3
2017-01-28T08:06:58.226Z,-1.2
2017-01-28T08:08:04.246Z,-1.2
2017-01-28T08:09:10.281Z,-1.2
2017-01-28T08:10:16.305Z,-1.1
2017-01-28T08:11:22.330Z,-1.2
2017-01-28T08:12:28.359Z,-1.1
2017-01-28T08:13:34.381Z,-1
2017-01-28T08:14:40.397Z,-1.1
2017-01-28T08:15:46.420Z,-1
2017-01-28T08:16:52.442Z,-1.1
2017-01-28T08:17:58.470Z,-1
2017-01-28T08:19:04.484Z,-1.1
2017-01-28T08:20:10.506Z,-1
2017-01-28T08:21:16.531Z,-0.9
2017-01-28T08:22:21.898Z,-0.9
2017-01-28T08:23:27.920Z,-0.9
2017-01-28T08:24:33.938Z,-0.9
2017-01-28T08:25:39.288Z,-0.9
2017-01-28T08:26:45.323Z,-0.8
2017-01-28T08:27:51.343Z,-0.6
2017-01-28T08:28:57.362Z,-0.6
2017-01-28T08:30:01.618Z,-0.6
2017-01-28T08:31:06.980Z,-0.6
2017-01-28T08:32:13.007Z,-0.4
2017-01-28T08:33:19.029Z,-0.6
2017-01-28T08:34:25.048Z,-0.5
2017-01-28T08:35:31.075Z,-0.4
2017-01-28T08:36:37.094Z,-0.5
2017-01-28T08:37:43.114Z,-0.4
2017-01-28T08:38:49.140Z,-0.3
2017-01-28T08:39:55.169Z,-0.3
2017-01-28T08:41:01.191Z,-0.2
2017-01-28T08:42:07.207Z,0.1
2017-01-28T08:43:13.231Z,0.1
2017-01-28T08:44:19.247Z,0
2017-01-28T08:45:24.232Z,0
2017-01-28T08:46:29.597Z,0
2017-01-28T08:47:35.613Z,0
2017-01-28T08:48:41.634Z,0.1
2017-01-28T08:49:47.644Z,0.1
2017-01-28T08:50:53.672Z,0.2
2017-01-28T08:51:59.700Z,0.2
2017-01-28T08:53:05.732Z,0.2
2017-01-28T08:54:11.740Z,0.3
2017-01-28T08:55:17.768Z,0.3
2017-01-28T08:56:23.784Z,0.4
2017-01-28T08:57:29.806Z,0.3
2017-01-28T08:58:34.722Z,0.3
2017-01-28T08:59:40.748Z,0.2
2017-01-28T09:00:46.764Z,0.3
2017-01-28T09:01:52.849Z,0.4
2017-01-28T09:02:58.262Z,0.3
2017-01-28T09:04:04.290Z,0.5
2017-01-28T09:05:09.058Z,0.7
2017-01-28T09:06:15.077Z,0.9
2017-01-28T09:07:21.106Z,0.9
2017-01-28T09:08:27.187Z,1
2017-01-28T09:09:31.443Z,1
2017-01-28T09:10:37.461Z,1.1
2017-01-28T09:11:42.727Z,1
2017-01-28T09:12:48.481Z,1
2017-01-28T09:13:54.501Z,1.1
2017-01-28T09:14:59.857Z,1.2
2017-01-28T09:16:05.871Z,1.4
2017-01-28T09:17:11.911Z,1.7
2017-01-28T09:18:17.928Z,1.8
2017-01-28T09:19:23.947Z,1.8
2017-01-28T09:20:29.977Z,2
2017-01-28T09:21:36.210Z,1.8
2017-01-28T09:22:42.239Z,1.6
2017-01-28T09:23:48.253Z,1.5
2017-01-28T09:24:54.295Z,1.3
2017-01-28T09:26:00.333Z,1.5
2017-01-28T09:27:06.570Z,1.6
2017-01-28T09:28:12.601Z,1.8
2017-01-28T09:29:18.610Z,1.8
2017-01-28T09:30:24.635Z,2
2017-01-28T09:31:30.661Z,2.1
2017-01-28T09:32:36.681Z,2
2017-01-28T09:33:42.703Z,2.1
2017-01-28T09:34:48.722Z,2.3
2017-01-28T09:35:54.739Z,2.4
2017-01-28T09:37:00.772Z,2.6
2017-01-28T09:38:06.127Z,2.7
2017-01-28T09:39:12.152Z,2.9
2017-01-28T09:40:18.166Z,2.7
2017-01-28T09:41:23.530Z,2.8
2017-01-28T09:42:29.545Z,2.9
2017-01-28T09:43:35.570Z,2.7
2017-01-28T09:44:41.595Z,2.8
2017-01-28T09:45:47.165Z,2.6
2017-01-28T09:46:52.980Z,2.4
2017-01-28T09:47:58.995Z,2.4
2017-01-28T09:49:05.019Z,2.5
2017-01-28T09:50:11.042Z,2.7
2017-01-28T09:51:16.406Z,2.9
2017-01-28T09:52:22.424Z,3.1
2017-01-28T09:53:28.447Z,3.1
2017-01-28T09:54:34.469Z,3.3
2017-01-28T09:55:40.480Z,3.3
2017-01-28T09:56:46.502Z,3.5
2017-01-28T09:57:52.523Z,3.5
2017-01-28T09:58:58.553Z,3.7
2017-01-28T10:00:03.905Z,3.5
2017-01-28T10:01:09.920Z,3.7
2017-01-28T10:02:15.932Z,3.7
2017-01-28T10:03:21.296Z,3.7
2017-01-28T10:04:27.313Z,3.8
2017-01-28T10:05:33.334Z,3.9
2017-01-28T10:06:39.363Z,4.1
2017-01-28T10:07:45.387Z,4.1
2017-01-28T10:08:51.404Z,4.2
2017-01-28T10:09:57.421Z,4.3
2017-01-28T10:11:02.348Z,4.3
2017-01-28T10:12:08.366Z,4.3
2017-01-28T10:13:14.380Z,4.1
2017-01-28T10:14:20.395Z,4.1
2017-01-28T10:15:26.419Z,4.1
2017-01-28T10:16:32.439Z,4
2017-01-28T10:17:38.457Z,3.8
2017-01-28T10:18:44.482Z,3.9
2017-01-28T10:19:50.510Z,3.7
2017-01-28T10:20:55.422Z,4.1
2017-01-28T10:22:00.780Z,4.4
2017-01-28T10:23:06.807Z,4.6
2017-01-28T10:24:12.164Z,4.6
2017-01-28T10:25:18.179Z,4.5
2017-01-28T10:26:24.189Z,4.6
2017-01-28T10:27:30.217Z,4.8
2017-01-28T10:28:36.237Z,4.9
2017-01-28T10:29:42.254Z,5
2017-01-28T10:30:48.276Z,4.7
2017-01-28T10:31:54.306Z,4.8
2017-01-28T10:33:00.315Z,4.8
2017-01-28T10:34:06.335Z,4.8
2017-01-28T10:35:12.360Z,5
2017-01-28T10:36:18.378Z,5.1
2017-01-28T10:37:24.393Z,5.3
2017-01-28T10:38:30.413Z,5
2017-01-28T10:39:36.435Z,5.2
2017-01-28T10:40:42.456Z,5.4
2017-01-28T10:41:47.809Z,5.3
2017-01-28T10:42:53.851Z,5.4
2017-01-28T10:43:58.760Z,5.4
2017-01-28T10:45:04.780Z,5.4
2017-01-28T10:46:10.134Z,5.3
2017-01-28T10:47:16.155Z,5.3
2017-01-28T10:48:21.520Z,5.4
2017-01-28T10:49:27.546Z,5.5
2017-01-28T10:50:33.564Z,5.6
2017-01-28T10:51:39.594Z,5.6
2017-01-28T10:52:45.604Z,5.7
2017-01-28T10:53:51.625Z,5.8
2017-01-28T10:54:57.009Z,5.7
2017-01-28T10:56:01.903Z,5.7
2017-01-28T10:57:07.263Z,5.6
2017-01-28T10:58:13.280Z,5.6
2017-01-28T10:59:19.300Z,5.4
2017-01-28T11:00:25.326Z,5.3
2017-01-28T11:01:31.347Z,5.5
2017-01-28T11:02:37.368Z,5.5
2017-01-28T11:03:43.388Z,5.8
2017-01-28T11:04:49.406Z,5.8
2017-01-28T11:05:55.424Z,5.9
2017-01-28T11:07:01.447Z,5.9
2017-01-28T11:08:06.806Z,5.9
2017-01-28T11:09:12.166Z,5.8
2017-01-28T11:10:18.187Z,5.9
2017-01-28T11:11:24.197Z,6
2017-01-28T11:12:30.220Z,5.9
2017-01-28T11:13:36.242Z,5.9
2017-01-28T11:14:42.261Z,5.9
2017-01-28T11:15:48.280Z,6
2017-01-28T11:16:53.641Z,5.7
2017-01-28T11:17:59.666Z,5.9
2017-01-28T11:19:05.688Z,6.1
2017-01-28T11:20:11.702Z,6.3
2017-01-28T11:21:17.728Z,6.2
2017-01-28T11:22:23.748Z,5.8
2017-01-28T11:23:29.771Z,5.8
2017-01-28T11:24:35.125Z,6.2
2017-01-28T11:25:41.147Z,6.6
2017-01-28T11:26:47.173Z,6.4
2017-01-28T11:27:53.198Z,6.2
2017-01-28T11:28:58.555Z,6.5
2017-01-28T11:30:04.576Z,6.3
2017-01-28T11:31:09.268Z,6.7
2017-01-28T11:32:15.286Z,6.8
2017-01-28T11:33:21.302Z,7.1
2017-01-28T11:34:27.333Z,6.8
2017-01-28T11:35:33.356Z,6.5
2017-01-28T11:36:38.054Z,6.6
2017-01-28T11:37:44.068Z,6.7
2017-01-28T11:38:49.428Z,6.8
2017-01-28T11:39:55.442Z,7.2
2017-01-28T11:41:01.461Z,7.3
2017-01-28T11:42:06.816Z,7.4
2017-01-28T11:43:12.838Z,7.5
2017-01-28T11:44:18.852Z,7.8
2017-01-28T11:45:24.872Z,7.5
2017-01-28T11:46:30.889Z,7.2
2017-01-28T11:47:35.154Z,7.3
2017-01-28T11:48:41.169Z,7.6
2017-01-28T11:49:47.183Z,7.6
2017-01-28T11:50:53.204Z,7.6
2017-01-28T11:51:59.219Z,7.6
2017-01-28T11:53:05.235Z,7.7
2017-01-28T11:54:11.255Z,7.3
2017-01-28T11:55:17.269Z,7.7
2017-01-28T11:56:23.284Z,7.3
2017-01-28T11:57:28.648Z,7.2
2017-01-28T11:58:34.667Z,7
2017-01-28T11:59:40.032Z,7.1
2017-01-28T12:00:46.045Z,7.4
2017-01-28T12:01:52.069Z,7.4
2017-01-28T12:02:58.088Z,7.7
2017-01-28T12:04:04.107Z,8
2017-01-28T12:05:10.122Z,8.4
2017-01-28T12:06:15.489Z,8.6
2017-01-28T12:07:21.509Z,8.6
2017-01-28T12:08:27.530Z,8.7
2017-01-28T12:09:33.558Z,8.8
2017-01-28T12:10:38.481Z,8.6
2017-01-28T12:11:44.493Z,8.8
2017-01-28T12:12:50.514Z,8.9
2017-01-28T12:13:56.539Z,8.8
2017-01-28T12:15:02.556Z,9
2017-01-28T12:16:08.572Z,8.7
2017-01-28T12:17:14.590Z,8.8
2017-01-28T12:18:20.611Z,8.6
2017-01-28T12:19:26.633Z,8.4
2017-01-28T12:20:31.992Z,8.7
2017-01-28T12:21:38.013Z,8.7
2017-01-28T12:22:44.028Z,9
2017-01-28T12:23:50.052Z,8.7
2017-01-28T12:24:55.408Z,8.8
2017-01-28T12:26:00.325Z,8.8
2017-01-28T12:27:06.348Z,8.7
2017-01-28T12:28:11.279Z,8.8
2017-01-28T12:29:17.291Z,9.2
2017-01-28T12:30:22.645Z,9.5
2017-01-28T12:31:28.655Z,9.9
2017-01-28T12:32:34.685Z,9.8
2017-01-28T12:33:40.708Z,10.2
2017-01-28T12:34:46.733Z,10.2
2017-01-28T12:35:52.754Z,10.3
2017-01-28T12:36:58.778Z,10.3
2017-01-28T12:38:04.139Z,10.5
2017-01-28T12:39:10.168Z,10.9
2017-01-28T12:40:16.198Z,11.2
2017-01-28T12:41:21.553Z,11.3
2017-01-28T12:42:27.575Z,10.7
2017-01-28T12:43:32.936Z,10.7
2017-01-28T12:44:38.292Z,11.1
2017-01-28T12:45:44.316Z,11.6
2017-01-28T12:46:50.342Z,11.3
2017-01-28T12:47:55.701Z,11.3
2017-01-28T12:49:01.721Z,11.4
2017-01-28T12:50:07.745Z,11.2
2017-01-28T12:51:13.759Z,11.5
2017-01-28T12:52:19.120Z,11.7
2017-01-28T12:53:25.148Z,11.9
2017-01-28T12:54:31.174Z,11.7
2017-01-28T12:55:37.192Z,11.5
2017-01-28T12:56:42.556Z,11.4
2017-01-28T12:57:47.905Z,11.5
2017-01-28T12:58:53.926Z,11.2
2017-01-28T12:59:59.289Z,11
2017-01-28T13:01:04.651Z,10.7
2017-01-28T13:02:10.674Z,10.1
2017-01-28T13:03:16.695Z,10.2
2017-01-28T13:04:22.713Z,10.2
2017-01-28T13:05:28.742Z,10.2
2017-01-28T13:06:34.768Z,10.1
2017-01-28T13:07:40.794Z,9.9
2017-01-28T13:08:46.865Z,9.7
2017-01-28T13:09:51.742Z,9.3
2017-01-28T13:10:57.763Z,9
2017-01-28T13:12:09.580Z,9
2017-01-28T13:13:13.934Z,8.7
2017-01-28T13:14:19.971Z,8.6
2017-01-28T13:15:26.025Z,7.9
2017-01-28T13:16:31.367Z,7.7
2017-01-28T13:17:37.377Z,7.8
2017-01-28T13:18:43.397Z,7.9
2017-01-28T13:19:49.420Z,7.9
2017-01-28T13:20:55.438Z,8
2017-01-28T13:22:00.793Z,8
2017-01-28T13:23:06.817Z,7.8
2017-01-28T13:24:12.836Z,7.8
2017-01-28T13:25:18.855Z,7.8
2017-01-28T13:26:24.878Z,7.7
2017-01-28T13:27:30.902Z,7.6
2017-01-28T13:28:36.923Z,7.4
2017-01-28T13:29:42.280Z,7.4
2017-01-28T13:30:47.735Z,7.5
2017-01-28T13:31:53.840Z,7.6
2017-01-28T13:32:59.193Z,7.3
2017-01-28T13:34:05.223Z,7.3
2017-01-28T13:35:11.244Z,7.3
2017-01-28T13:36:16.602Z,7.3
2017-01-28T13:37:22.629Z,7.2
2017-01-28T13:38:28.656Z,7.2
2017-01-28T13:39:34.674Z,7.2
2017-01-28T13:40:40.690Z,7
2017-01-28T13:41:46.712Z,7
2017-01-28T13:42:52.727Z,6.9
2017-01-28T13:43:58.743Z,6.8
2017-01-28T13:45:04.759Z,6.8
2017-01-28T13:46:10.788Z,6.8
2017-01-28T13:47:16.803Z,6.6
2017-01-28T13:48:22.823Z,6.3
2017-01-28T13:49:28.845Z,6.4
2017-01-28T13:50:34.868Z,6.4
2017-01-28T13:51:40.887Z,6.2
2017-01-28T13:52:46.907Z,6.1
2017-01-28T13:53:52.926Z,6
2017-01-28T13:54:58.949Z,5.9
2017-01-28T13:56:04.974Z,5.8
2017-01-28T13:57:09.894Z,5.7
2017-01-28T13:58:15.914Z,5.6
2017-01-28T13:59:21.937Z,5.5
2017-01-28T14:00:28.027Z,5.4
2017-01-28T14:01:34.272Z,5.4
2017-01-28T14:02:40.320Z,5.4
2017-01-28T14:03:46.347Z,5.2
2017-01-28T14:04:51.705Z,5.3
2017-01-28T14:05:57.731Z,5.1
2017-01-28T14:07:03.806Z,5
2017-01-28T14:08:09.893Z,4.9
2017-01-28T14:09:15.909Z,4.8
2017-01-28T14:10:21.927Z,4.8
2017-01-28T14:11:27.946Z,4.6
2017-01-28T14:12:33.967Z,4.5
2017-01-28T14:13:39.351Z,4.6
2017-01-28T14:14:44.249Z,4.7
2017-01-28T14:15:50.294Z,4.6
2017-01-28T14:16:56.317Z,4.7
2017-01-28T14:18:01.244Z,4.4
2017-01-28T14:19:07.263Z,4.3
2017-01-28T14:20:13.273Z,4.3
2017-01-28T14:21:19.296Z,4.4
2017-01-28T14:22:25.322Z,4.3
2017-01-28T14:23:30.672Z,4.4
2017-01-28T14:24:36.698Z,4.3
2017-01-28T14:25:42.726Z,4.2
2017-01-28T14:26:48.739Z,4
2017-01-28T14:27:54.755Z,4
2017-01-28T14:29:00.777Z,3.9
2017-01-28T14:30:06.792Z,3.9
2017-01-28T14:31:12.812Z,3.9
2017-01-28T14:32:18.832Z,3.9
2017-01-28T14:33:24.853Z,4
2017-01-28T14:34:30.880Z,3.8
2017-01-28T14:35:36.905Z,3.7
2017-01-28T14:36:42.927Z,3.7
2017-01-28T14:37:48.941Z,3.7
2017-01-28T14:38:55.611Z,3.7
2017-01-28T14:40:00.870Z,3.6
2017-01-28T14:41:06.885Z,3.5
2017-01-28T14:42:12.915Z,3.5
2017-01-28T14:43:18.935Z,3.4
2017-01-28T14:44:24.953Z,3.4
2017-01-28T14:45:30.965Z,3.4
2017-01-28T14:46:36.994Z,3.4
2017-01-28T14:47:41.912Z,3.4
2017-01-28T14:48:47.930Z,3.3
2017-01-28T14:49:52.846Z,3.2
2017-01-28T14:50:57.769Z,3.2
2017-01-28T14:52:02.028Z,3.1
2017-01-28T14:53:08.051Z,3.2
2017-01-28T14:54:13.406Z,3.3